Time;durP1;ratioP1;P1;durP2;ratioP2;P2;SDS_P1;SDS_P2;PMS_P1;PMS_P2;Temp;Humidity;BMP_temperature;BMP_pressure;BME280_temperature;BME280_humidity;BME280_pressure;Samples;Min_cycle;Max_cycle;Signal;HPM_P1;HPM_P2
2022/05/17 00:02:05;;;;;;;7.13;3.70;;;13.70;99.90;;;;;;5072921;28;20131;-80
2022/05/17 00:04:32;;;;;;;6.20;3.63;;;13.70;99.90;;;;;;5072672;28;20025;-83
2022/05/17 00:06:58;;;;;;;8.13;3.88;;;13.70;99.90;;;;;;5072823;28;20023;-83
2022/05/17 00:09:24;;;;;;;5.82;4.20;;;13.70;99.90;;;;;;5072482;28;20021;-83
2022/05/17 00:11:49;;;;;;;7.30;3.85;;;13.70;99.90;;;;;;5054908;28;20031;-83
2022/05/17 00:14:16;;;;;;;7.00;3.85;;;13.70;99.90;;;;;;5072646;28;20016;-80
2022/05/17 00:16:43;;;;;;;9.80;3.75;;;13.70;99.90;;;;;;5072377;28;20033;-80
2022/05/17 00:19:10;;;;;;;7.43;3.75;;;13.60;99.90;;;;;;5071889;28;20067;-80
2022/05/17 00:21:36;;;;;;;5.80;3.83;;;13.70;99.90;;;;;;5072570;28;20461;-80
2022/05/17 00:24:03;;;;;;;9.75;3.63;;;13.60;99.90;;;;;;5072582;28;20060;-80
2022/05/17 00:26:28;;;;;;;9.10;3.83;;;13.70;99.90;;;;;;5054279;28;20021;-80
2022/05/17 00:28:55;;;;;;;11.07;4.00;;;13.70;99.90;;;;;;5072692;28;20078;-80
2022/05/17 00:31:21;;;;;;;7.82;4.55;;;13.70;99.90;;;;;;5072248;28;20033;-80
2022/05/17 00:33:47;;;;;;;6.82;4.13;;;13.70;99.90;;;;;;5072298;28;20035;-80
2022/05/17 00:36:13;;;;;;;9.35;3.85;;;13.70;99.90;;;;;;5072669;28;20037;-80
2022/05/17 00:38:38;;;;;;;8.07;4.50;;;13.60;99.90;;;;;;5054328;28;20029;-79
2022/05/17 00:41:04;;;;;;;7.25;3.58;;;13.70;99.90;;;;;;5072646;28;20041;-80
2022/05/17 00:46:22;;;;;;;6.57;4.28;;;13.70;99.90;;;;;;5072805;28;20094;-80
2022/05/17 00:48:49;;;;;;;7.70;3.67;;;13.70;99.90;;;;;;5072347;28;20025;-80
2022/05/17 00:51:14;;;;;;;8.73;4.20;;;13.60;99.90;;;;;;5071930;28;20116;-80
2022/05/17 00:53:40;;;;;;;11.27;4.88;;;13.60;99.90;;;;;;5070522;28;20059;-80
2022/05/17 00:56:20;;;;;;;6.88;4.43;;;13.60;99.90;;;;;;5052111;28;20419;-80
2022/05/17 00:58:53;;;;;;;5.88;3.90;;;13.60;99.90;;;;;;5070788;28;20035;-80
2022/05/17 01:01:22;;;;;;;8.20;4.25;;;13.60;99.90;;;;;;5072196;28;20107;-80
2022/05/17 01:04:03;;;;;;;9.70;4.40;;;13.60;99.90;;;;;;5072076;28;20021;-80
2022/05/17 01:06:35;;;;;;;10.82;4.32;;;13.60;99.90;;;;;;5068079;28;20519;-80
2022/05/17 01:09:02;;;;;;;9.18;4.93;;;13.60;99.90;;;;;;5072147;28;20096;-80
2022/05/17 01:11:27;;;;;;;6.47;4.05;;;13.60;99.90;;;;;;5071890;28;20025;-80
2022/05/17 01:16:37;;;;;;;11.00;4.65;;;13.50;99.90;;;;;;5067908;28;20428;-80
2022/05/17 01:19:06;;;;;;;7.18;4.10;;;13.50;99.90;;;;;;5071802;28;20033;-81
2022/05/17 01:21:32;;;;;;;7.55;4.07;;;13.50;99.90;;;;;;5072095;28;20021;-81
2022/05/17 01:23:58;;;;;;;9.05;4.40;;;13.50;99.90;;;;;;5071922;28;20036;-81
2022/05/17 01:26:26;;;;;;;10.15;4.50;;;13.50;99.90;;;;;;5071719;28;20028;-81
2022/05/17 01:28:52;;;;;;;9.70;4.43;;;13.50;99.90;;;;;;5071821;28;20480;-81
2022/05/17 01:31:19;;;;;;;8.70;4.50;;;13.50;99.90;;;;;;5055745;28;20033;-81
2022/05/17 01:33:44;;;;;;;12.70;5.38;;;13.50;99.90;;;;;;5075350;28;20025;-81
2022/05/17 01:36:15;;;;;;;7.28;4.30;;;13.50;99.90;;;;;;5057712;28;20374;-80
2022/05/17 01:38:45;;;;;;;6.47;4.72;;;13.50;99.90;;;;;;5075021;28;20021;-81
2022/05/17 01:41:11;;;;;;;7.90;4.57;;;13.50;99.90;;;;;;5075405;28;20111;-80
2022/05/17 01:43:37;;;;;;;8.77;3.97;;;13.50;99.90;;;;;;5075514;28;20096;-81
2022/05/17 01:46:08;;;;;;;7.38;4.38;;;13.50;99.90;;;;;;5057004;28;20119;-81
2022/05/17 01:48:35;;;;;;;8.57;4.55;;;13.50;99.90;;;;;;5075073;28;20490;-81
2022/05/17 01:51:01;;;;;;;7.18;5.40;;;13.50;99.90;;;;;;5075010;28;20420;-81
2022/05/17 01:53:26;;;;;;;11.80;4.93;;;13.50;99.90;;;;;;5075105;28;20031;-81
2022/05/17 01:55:52;;;;;;;10.25;5.30;;;13.50;99.90;;;;;;5056939;28;20025;-80
2022/05/17 01:58:17;;;;;;;8.23;5.20;;;13.40;99.90;;;;;;5074259;28;20039;-81
2022/05/17 02:00:45;;;;;;;8.50;4.70;;;13.40;99.90;;;;;;5055785;28;20025;-81
2022/05/17 02:03:13;;;;;;;5.50;4.30;;;13.40;99.90;;;;;;5073817;28;20031;-80
2022/05/17 02:05:39;;;;;;;7.90;4.47;;;13.40;99.90;;;;;;5064253;28;20024;-81
2022/05/17 02:08:05;;;;;;;9.68;5.30;;;13.40;99.90;;;;;;5056811;28;20028;-81
2022/05/17 02:10:31;;;;;;;7.80;5.25;;;13.40;99.90;;;;;;5073687;28;20055;-83
2022/05/17 02:12:58;;;;;;;10.65;4.72;;;13.40;99.90;;;;;;5054520;28;20449;-83
2022/05/17 02:15:25;;;;;;;7.30;4.70;;;13.30;99.90;;;;;;5073376;28;20024;-82
2022/05/17 02:17:51;;;;;;;6.63;4.80;;;13.30;99.90;;;;;;5074130;28;20024;-83
2022/05/17 02:20:17;;;;;;;13.32;5.38;;;13.30;99.90;;;;;;5056150;28;20048;-83
2022/05/17 02:22:43;;;;;;;12.20;5.03;;;13.30;99.90;;;;;;5073916;28;20079;-83
2022/05/17 02:25:10;;;;;;;7.80;5.38;;;13.30;99.90;;;;;;5073543;28;20120;-82
2022/05/17 02:27:36;;;;;;;9.27;4.97;;;13.30;99.90;;;;;;5073821;28;20020;-82
2022/05/17 02:30:03;;;;;;;9.13;4.97;;;13.30;99.90;;;;;;5074045;28;20419;-82
2022/05/17 02:32:28;;;;;;;8.35;4.55;;;13.20;99.90;;;;;;5074240;28;20024;-82
2022/05/17 02:34:54;;;;;;;9.13;4.95;;;13.20;99.90;;;;;;5074257;28;20044;-83
2022/05/17 02:37:19;;;;;;;9.75;5.32;;;13.20;99.90;;;;;;5074050;28;20032;-82
2022/05/17 02:39:45;;;;;;;10.10;5.13;;;13.20;99.90;;;;;;5073652;28;20029;-83
2022/05/17 02:42:11;;;;;;;8.70;4.75;;;13.20;99.90;;;;;;5073116;28;20765;-82
2022/05/17 02:44:37;;;;;;;12.90;5.03;;;13.20;99.90;;;;;;5074135;28;20028;-82
2022/05/17 02:47:04;;;;;;;7.70;4.72;;;13.10;99.90;;;;;;5073988;28;20353;-83
2022/05/17 02:49:29;;;;;;;9.25;5.38;;;13.10;99.90;;;;;;5073666;28;20028;-83
2022/05/17 02:51:55;;;;;;;10.93;4.78;;;13.10;99.90;;;;;;5073434;28;20052;-82
2022/05/17 02:54:22;;;;;;;11.55;5.45;;;13.10;99.90;;;;;;5054463;28;20126;-82
2022/05/17 02:56:47;;;;;;;9.13;5.03;;;13.00;99.90;;;;;;5071112;28;20533;-82
2022/05/17 02:59:18;;;;;;;9.02;5.47;;;13.00;99.90;;;;;;5055479;28;20140;-83
2022/05/17 03:01:45;;;;;;;9.13;5.00;;;13.00;99.90;;;;;;5073609;28;20017;-82
2022/05/17 03:04:13;;;;;;;13.00;5.30;;;13.00;99.90;;;;;;5073224;28;20020;-83
2022/05/17 03:06:42;;;;;;;8.43;4.88;;;12.90;99.90;;;;;;5073762;28;20025;-83
2022/05/17 03:09:09;;;;;;;9.30;5.22;;;12.90;99.90;;;;;;5073484;28;20028;-83
2022/05/17 03:11:36;;;;;;;10.15;5.28;;;12.90;99.90;;;;;;5073206;28;20035;-83
2022/05/17 03:14:01;;;;;;;8.35;5.25;;;12.90;99.90;;;;;;5073400;28;20831;-82
2022/05/17 03:16:31;;;;;;;8.85;5.10;;;12.80;99.90;;;;;;5073349;28;20112;-83
2022/05/17 03:19:00;;;;;;;10.52;4.82;;;12.80;99.90;;;;;;5073059;28;20029;-83
2022/05/17 03:21:26;;;;;;;9.30;5.80;;;12.80;99.90;;;;;;5073299;28;20027;-80
2022/05/17 03:23:52;;;;;;;10.57;6.00;;;12.80;99.90;;;;;;5073550;28;20021;-80
2022/05/17 03:26:18;;;;;;;7.85;4.78;;;12.80;99.90;;;;;;5073174;28;20021;-80
2022/05/17 03:28:44;;;;;;;10.23;5.85;;;12.70;99.90;;;;;;5073081;28;20036;-81
2022/05/17 03:31:10;;;;;;;9.52;5.15;;;12.70;99.90;;;;;;5055202;28;20817;-80
2022/05/17 03:33:37;;;;;;;8.48;5.10;;;12.70;99.90;;;;;;5073453;28;20027;-81
2022/05/17 03:36:06;;;;;;;9.23;5.28;;;12.70;99.90;;;;;;5073297;28;20029;-81
2022/05/17 03:38:33;;;;;;;14.20;5.72;;;12.70;99.90;;;;;;5060970;28;20024;-79
2022/05/17 03:40:58;;;;;;;10.95;5.82;;;12.60;99.90;;;;;;5073092;28;20031;-80
2022/05/17 03:43:28;;;;;;;13.90;5.93;;;12.70;99.90;;;;;;5072970;28;20021;-79
2022/05/17 03:45:55;;;;;;;9.98;5.93;;;12.60;99.90;;;;;;5072601;28;20051;-79
2022/05/17 03:48:20;;;;;;;12.88;5.78;;;12.60;99.90;;;;;;5072954;28;20103;-80
2022/05/17 03:50:46;;;;;;;13.77;5.57;;;12.60;99.90;;;;;;5072705;28;20746;-79
2022/05/17 03:53:12;;;;;;;10.15;5.70;;;12.60;99.90;;;;;;5072777;28;20099;-79
2022/05/17 03:55:38;;;;;;;9.63;5.45;;;12.60;99.90;;;;;;5066043;28;20031;-79
2022/05/17 03:58:03;;;;;;;12.88;5.60;;;12.60;99.90;;;;;;5072304;28;20082;-79
2022/05/17 04:00:29;;;;;;;10.75;6.18;;;12.60;99.90;;;;;;5072616;28;20029;-79
2022/05/17 04:02:54;;;;;;;10.68;5.90;;;12.60;99.90;;;;;;5072545;28;20023;-80
2022/05/17 04:05:20;;;;;;;11.82;5.88;;;12.60;99.90;;;;;;5072244;28;20383;-80
2022/05/17 04:07:46;;;;;;;10.05;5.53;;;12.60;99.90;;;;;;5053811;28;20040;-80
2022/05/17 04:10:14;;;;;;;11.20;6.03;;;12.60;99.90;;;;;;5053347;28;20044;-79
2022/05/17 04:12:40;;;;;;;12.65;6.13;;;12.60;99.90;;;;;;5069775;28;20040;-79
2022/05/17 04:15:09;;;;;;;12.35;6.75;;;12.60;99.90;;;;;;5073277;28;20021;-79
2022/05/17 04:17:34;;;;;;;12.25;6.18;;;12.60;99.90;;;;;;5072505;28;20040;-79
2022/05/17 04:20:00;;;;;;;6.85;5.70;;;12.60;99.90;;;;;;5072485;28;20024;-79
2022/05/17 04:22:26;;;;;;;9.38;6.18;;;12.60;99.90;;;;;;5070349;28;20126;-79
2022/05/17 04:24:59;;;;;;;10.90;6.50;;;12.60;99.90;;;;;;5064975;28;20021;-79
2022/05/17 04:27:25;;;;;;;10.68;6.50;;;12.60;99.90;;;;;;5068049;28;20021;-79
2022/05/17 04:29:51;;;;;;;9.57;6.32;;;12.60;99.90;;;;;;5067915;28;20025;-80
2022/05/17 04:32:17;;;;;;;8.75;5.93;;;12.60;99.90;;;;;;5071139;28;20027;-80
2022/05/17 04:34:43;;;;;;;10.57;6.10;;;12.70;99.90;;;;;;5069465;28;20028;-79
2022/05/17 04:37:10;;;;;;;8.88;6.07;;;12.70;99.90;;;;;;5053527;28;20119;-79
2022/05/17 04:39:36;;;;;;;20.02;6.72;;;12.70;99.90;;;;;;5062867;28;20032;-79
2022/05/17 04:42:02;;;;;;;10.48;6.45;;;12.70;99.90;;;;;;5071552;28;20355;-79
2022/05/17 04:44:28;;;;;;;10.02;6.40;;;12.70;99.90;;;;;;5054177;28;20028;-79
2022/05/17 04:46:53;;;;;;;11.50;5.90;;;12.70;99.90;;;;;;5071082;28;20021;-79
2022/05/17 04:49:19;;;;;;;11.90;5.80;;;12.70;99.90;;;;;;5064943;28;20096;-79
2022/05/17 04:51:45;;;;;;;12.60;6.55;;;12.70;99.90;;;;;;5060040;28;20040;-79
2022/05/17 04:54:11;;;;;;;9.43;6.22;;;12.80;99.90;;;;;;5051422;28;20032;-79
2022/05/17 04:56:36;;;;;;;9.77;5.93;;;12.80;99.90;;;;;;5066147;28;20441;-77
2022/05/17 04:59:03;;;;;;;10.20;6.45;;;12.80;99.90;;;;;;5061894;28;20052;-81
2022/05/17 05:01:29;;;;;;;13.63;6.53;;;12.80;99.90;;;;;;5070217;28;20025;-81
2022/05/17 05:03:54;;;;;;;10.48;5.78;;;12.80;99.90;;;;;;5070229;28;20031;-82
2022/05/17 05:06:20;;;;;;;11.00;6.15;;;12.80;99.90;;;;;;5073641;28;20021;-82
2022/05/17 05:08:46;;;;;;;8.60;5.85;;;12.80;99.90;;;;;;5075642;28;20020;-81
2022/05/17 05:11:12;;;;;;;12.30;5.85;;;12.80;99.90;;;;;;5074981;28;20370;-82
2022/05/17 05:13:38;;;;;;;8.93;5.72;;;12.90;99.90;;;;;;5076210;28;20063;-84
2022/05/17 05:16:24;;;;;;;11.77;5.78;;;12.90;99.90;;;;;;5054272;28;20020;-84
2022/05/17 05:18:58;;;;;;;9.60;6.20;;;12.90;99.90;;;;;;5049444;28;20335;-84
2022/05/17 05:21:24;;;;;;;9.73;6.10;;;12.90;99.90;;;;;;5055900;28;20033;-84
2022/05/17 05:23:49;;;;;;;13.88;6.35;;;13.00;99.90;;;;;;5055583;28;20074;-87
2022/05/17 05:26:15;;;;;;;9.02;6.13;;;12.90;99.90;;;;;;5056299;28;20129;-85
2022/05/17 05:28:45;;;;;;;17.50;6.78;;;13.00;99.90;;;;;;5056047;28;20229;-86
2022/05/17 05:31:12;;;;;;;13.90;6.00;;;13.10;99.90;;;;;;5037791;28;20044;-80
2022/05/17 05:33:39;;;;;;;9.20;5.05;;;13.20;99.90;;;;;;5049334;28;20023;-83
2022/05/17 05:36:05;;;;;;;9.25;6.18;;;13.20;99.90;;;;;;5052491;28;20442;-83
2022/05/17 05:38:31;;;;;;;7.03;5.30;;;13.30;99.90;;;;;;5042090;28;20026;-83
2022/05/17 05:40:57;;;;;;;12.25;6.25;;;13.40;99.90;;;;;;5032889;28;20017;-87
2022/05/17 05:43:25;;;;;;;9.80;5.97;;;13.50;99.90;;;;;;5036319;28;20029;-87
2022/05/17 05:45:55;;;;;;;8.57;5.53;;;13.60;99.90;;;;;;5064033;28;20032;-87
2022/05/17 05:48:28;;;;;;;8.98;5.50;;;13.90;99.90;;;;;;5036887;28;20033;-87
2022/05/17 05:50:56;;;;;;;10.63;5.10;;;14.10;99.90;;;;;;5037086;28;20044;-87
2022/05/17 05:53:25;;;;;;;12.85;5.70;;;14.30;99.90;;;;;;5036836;28;20454;-87
2022/05/17 05:56:18;;;;;;;7.88;5.22;;;14.40;99.90;;;;;;5048407;28;20017;-87
2022/05/17 05:58:46;;;;;;;10.90;5.50;;;14.60;99.90;;;;;;5019793;28;20444;-87
2022/05/17 06:01:17;;;;;;;9.88;5.30;;;14.90;99.90;;;;;;5034516;28;20024;-87
2022/05/17 06:03:45;;;;;;;8.95;5.57;;;15.10;99.90;;;;;;5034943;28;20041;-87
2022/05/17 06:06:35;;;;;;;7.72;5.13;;;15.30;99.90;;;;;;5050798;28;20025;-89
2022/05/17 06:09:05;;;;;;;8.15;4.82;;;15.50;99.90;;;;;;5036863;28;20488;-89
2022/05/17 06:11:38;;;;;;;10.20;4.53;;;15.70;99.90;;;;;;5037235;28;20067;-89
2022/05/17 06:14:27;;;;;;;11.73;5.15;;;15.90;99.90;;;;;;5051119;28;20032;-89
2022/05/17 06:16:56;;;;;;;10.27;5.30;;;16.20;99.90;;;;;;5048952;28;20378;-88
2022/05/17 06:19:27;;;;;;;11.93;5.45;;;16.40;99.90;;;;;;5034222;28;20048;-88
2022/05/17 06:21:55;;;;;;;9.75;5.15;;;16.60;99.90;;;;;;5033753;28;20041;-89
2022/05/17 06:24:45;;;;;;;13.05;5.50;;;16.70;99.90;;;;;;5032608;28;20025;-88
2022/05/17 06:27:09;;;;;;;13.20;5.82;;;16.80;99.90;;;;;;5050595;28;20036;-89
2022/05/17 06:29:34;;;;;;;15.55;5.70;;;17.00;99.90;;;;;;5033403;28;20025;-89
2022/05/17 06:32:03;;;;;;;8.50;5.40;;;17.10;99.90;;;;;;5051717;28;20119;-89
2022/05/17 06:34:28;;;;;;;8.00;5.68;;;17.40;99.90;;;;;;5049812;28;20871;-89
2022/05/17 06:36:56;;;;;;;9.23;5.72;;;17.60;99.90;;;;;;5033386;28;20028;-89
2022/05/17 06:39:24;;;;;;;11.55;5.93;;;17.60;99.90;;;;;;5033405;28;20539;-90
2022/05/17 06:41:57;;;;;;;9.32;5.53;;;17.60;99.90;;;;;;5050464;28;20112;-89
2022/05/17 06:44:38;;;;;;;;;;;;;;;;;;;;;
2022/05/17 06:47:37;;;;;;;10.98;6.18;;;17.60;99.90;;;;;;5050976;28;20662;-90
2022/05/17 06:50:06;;;;;;;10.70;6.15;;;17.60;99.90;;;;;;5032654;28;20033;-82
2022/05/17 06:52:32;;;;;;;9.35;5.97;;;17.80;99.90;;;;;;5052741;28;20115;-89
2022/05/17 06:54:57;;;;;;;9.90;5.38;;;17.90;99.90;;;;;;5050718;28;20120;-89
2022/05/17 06:57:26;;;;;;;11.60;7.30;;;18.10;99.90;;;;;;5033910;28;20650;-89
2022/05/17 06:59:57;;;;;;;14.60;6.50;;;18.20;99.90;;;;;;5032704;28;20063;-90
2022/05/17 07:02:26;;;;;;;12.30;6.30;;;18.20;99.90;;;;;;5033098;28;20119;-90
2022/05/17 07:05:15;;;;;;;12.68;6.10;;;18.20;99.90;;;;;;5049641;28;20029;-89
2022/05/17 07:07:48;;;;;;;10.48;5.70;;;18.20;99.90;;;;;;5026889;28;20040;-90
2022/05/17 07:13:08;;;;;;;14.60;6.60;;;18.10;99.90;;;;;;5048405;28;20068;-87
2022/05/17 07:15:46;;;;;;;10.50;6.45;;;18.20;99.90;;;;;;5030573;28;20029;-87
2022/05/17 07:18:17;;;;;;;10.25;5.80;;;18.20;99.90;;;;;;5032397;28;20028;-87
2022/05/17 07:20:46;;;;;;;12.88;6.38;;;18.20;99.90;;;;;;5032176;28;20037;-86
2022/05/17 07:23:15;;;;;;;11.65;5.70;;;18.10;99.90;;;;;;5051975;28;20335;-87
2022/05/17 07:26:04;;;;;;;12.95;5.47;;;18.00;99.90;;;;;;5033450;28;20071;-88
2022/05/17 07:28:38;;;;;;;9.07;5.50;;;18.10;99.90;;;;;;5052403;28;20438;-87
2022/05/17 07:31:07;;;;;;;11.32;6.68;;;18.10;99.90;;;;;;5033889;28;20108;-86
2022/05/17 07:33:35;;;;;;;9.30;5.80;;;18.30;99.90;;;;;;5052691;28;20146;-87
2022/05/17 07:36:05;;;;;;;10.52;5.93;;;18.30;99.90;;;;;;5034120;28;20028;-86
2022/05/17 07:41:57;;;;;;;10.70;5.68;;;18.10;99.90;;;;;;5039837;28;20056;-87
2022/05/17 07:44:25;;;;;;;10.15;5.63;;;18.10;99.90;;;;;;5033033;28;20099;-87
2022/05/17 07:47:17;;;;;;;8.57;5.32;;;18.20;99.90;;;;;;5032370;28;20060;-85
2022/05/17 07:49:46;;;;;;;7.35;5.53;;;18.40;99.90;;;;;;5038708;28;20045;-84
2022/05/17 07:52:15;;;;;;;9.07;5.47;;;18.60;99.90;;;;;;5032316;28;20056;-84
2022/05/17 07:54:48;;;;;;;10.52;6.38;;;18.70;99.90;;;;;;5048281;28;20051;-84
2022/05/17 07:57:16;;;;;;;7.40;5.35;;;18.70;99.90;;;;;;5032845;28;20465;-84
2022/05/17 08:00:06;;;;;;;9.13;5.78;;;18.70;99.90;;;;;;5046326;28;20037;-84
2022/05/17 08:02:35;;;;;;;9.18;5.63;;;18.70;99.90;;;;;;5049342;28;20040;-84
2022/05/17 08:05:47;;;;;;;7.78;5.60;;;18.80;99.90;;;;;;5049280;28;21198;-84
2022/05/17 08:08:15;;;;;;;8.95;5.43;;;18.90;99.90;;;;;;5035918;28;20040;-84
2022/05/17 08:10:58;;;;;;;9.25;5.22;;;19.00;99.90;;;;;;5048896;28;20032;-84
2022/05/17 08:13:26;;;;;;;13.25;5.70;;;19.10;99.90;;;;;;5049570;28;20029;-84
2022/05/17 08:15:55;;;;;;;9.30;5.10;;;19.20;99.90;;;;;;5031448;28;20047;-84
2022/05/17 08:19:06;;;;;;;8.13;4.88;;;19.30;99.90;;;;;;5048667;28;20096;-85
2022/05/17 08:21:36;;;;;;;7.55;4.78;;;19.30;99.90;;;;;;5026809;28;20044;-84
2022/05/17 08:24:25;;;;;;;9.13;5.20;;;19.40;99.90;;;;;;5048636;28;20108;-84
2022/05/17 08:30:17;;;;;;;9.13;5.10;;;19.40;99.90;;;;;;5046971;28;20516;-84
2022/05/17 08:33:17;;;;;;;8.25;5.00;;;19.30;99.90;;;;;;5030108;28;20028;-84
2022/05/17 08:36:00;;;;;;;8.80;4.85;;;19.30;99.90;;;;;;5031587;28;20029;-84
2022/05/17 08:38:47;;;;;;;12.75;5.47;;;19.40;99.90;;;;;;5054937;28;20021;-90
2022/05/17 08:45:06;;;;;;;9.88;4.85;;;19.70;99.90;;;;;;4981594;28;20399;-89
2022/05/17 08:47:58;;;;;;;8.30;4.00;;;19.80;99.90;;;;;;5029318;28;20036;-91
2022/05/17 08:53:37;;;;;;;;;;;;;;;;;;;;;
2022/05/17 08:56:28;;;;;;;7.35;4.88;;;19.90;99.90;;;;;;5013454;28;20033;-84
2022/05/17 08:58:59;;;;;;;6.15;3.92;;;20.10;99.90;;;;;;5012512;28;20114;-85
2022/05/17 09:01:36;;;;;;;10.63;4.72;;;20.30;99.90;;;;;;5014046;28;20549;-87
2022/05/17 09:04:15;;;;;;;12.02;4.20;;;20.40;99.90;;;;;;5013670;28;20049;-88
2022/05/17 09:06:54;;;;;;;10.63;4.22;;;20.30;99.90;;;;;;5012114;28;20029;-88
2022/05/17 09:09:38;;;;;;;8.10;4.35;;;20.30;99.90;;;;;;5012944;28;20065;-87
2022/05/17 09:12:37;;;;;;;7.40;4.27;;;20.30;99.90;;;;;;5013852;28;20490;-88
2022/05/17 09:15:16;;;;;;;9.45;4.30;;;20.30;99.90;;;;;;5019313;28;20040;-91
2022/05/17 09:18:18;;;;;;;6.63;3.83;;;20.40;99.90;;;;;;5020761;28;20544;-91
2022/05/17 09:21:08;;;;;;;8.07;4.63;;;20.50;99.90;;;;;;5014535;28;20093;-90
2022/05/17 09:23:37;;;;;;;8.45;4.40;;;20.70;99.90;;;;;;5020371;28;20065;-90
2022/05/17 09:26:07;;;;;;;8.07;3.35;;;20.90;99.90;;;;;;5022069;28;20110;-90
2022/05/17 09:29:14;;;;;;;6.45;3.63;;;21.10;99.90;;;;;;5019528;28;20036;-89
2022/05/17 09:31:51;;;;;;;7.88;3.97;;;21.10;99.90;;;;;;5017807;28;20391;-91
2022/05/17 09:34:29;;;;;;;7.43;3.92;;;21.30;99.90;;;;;;5020549;28;20026;-90
2022/05/17 09:36:57;;;;;;;9.85;3.60;;;21.40;99.90;;;;;;5020118;28;20037;-90
2022/05/17 09:39:27;;;;;;;8.70;3.78;;;21.50;99.90;;;;;;5011893;28;20034;-87
2022/05/17 09:42:46;;;;;;;9.25;3.83;;;21.70;99.90;;;;;;5013273;28;20040;-87
2022/05/17 09:45:38;;;;;;;;;;;;;;;;;;;;;
2022/05/17 09:48:26;;;;;;;7.38;3.42;;;22.60;99.90;;;;;;5010041;28;20025;-87
2022/05/17 09:53:52;;;;;;;8.57;3.85;;;23.50;99.90;;;;;;5047845;28;20500;-71
2022/05/17 09:56:26;;;;;;;5.70;2.80;;;23.60;99.90;;;;;;5036244;28;20579;-71
2022/05/17 09:58:51;;;;;;;9.97;2.90;;;23.70;99.90;;;;;;5053463;28;20127;-71
2022/05/17 10:01:38;;;;;;;4.82;2.90;;;23.80;99.90;;;;;;5053939;28;20853;-71
2022/05/17 10:04:13;;;;;;;5.90;3.22;;;24.00;99.90;;;;;;5054102;28;20036;-71
2022/05/17 10:06:45;;;;;;;5.82;3.17;;;24.10;99.90;;;;;;5053947;28;20734;-71
2022/05/17 10:09:26;;;;;;;9.18;3.80;;;24.20;99.90;;;;;;5054246;28;20057;-71
2022/05/17 10:12:04;;;;;;;8.35;3.83;;;24.30;99.90;;;;;;5053826;28;20033;-71
2022/05/17 10:14:37;;;;;;;6.88;3.45;;;24.40;99.90;;;;;;5053984;28;20116;-71
2022/05/17 10:17:13;;;;;;;8.32;3.30;;;24.20;99.90;;;;;;5053193;28;20059;-72
2022/05/17 10:19:52;;;;;;;7.22;3.03;;;24.10;99.90;;;;;;5053109;28;20025;-72
2022/05/17 10:22:18;;;;;;;5.30;3.03;;;24.20;99.90;;;;;;5053598;28;20443;-72
2022/05/17 10:24:53;;;;;;;7.38;3.00;;;24.20;99.90;;;;;;5053042;28;20104;-72
2022/05/17 10:27:55;;;;;;;9.27;3.13;;;24.00;99.90;;;;;;5053146;28;20148;-71
2022/05/17 10:30:50;;;;;;;5.97;2.97;;;24.10;99.90;;;;;;5040439;28;20481;-74
2022/05/17 10:33:33;;;;;;;6.68;2.85;;;24.00;99.90;;;;;;5006652;28;20047;-70
2022/05/17 10:36:03;;;;;;;3.60;2.55;;;24.10;99.90;;;;;;5033042;28;20029;-71
2022/05/17 10:38:46;;;;;;;4.80;2.85;;;24.30;99.90;;;;;;5033124;28;20060;-70
2022/05/17 10:41:12;;;;;;;5.00;3.00;;;24.60;99.90;;;;;;5038331;28;20023;-70
2022/05/17 10:43:41;;;;;;;8.80;3.72;;;24.80;99.90;;;;;;5053200;28;20025;-70
2022/05/17 10:46:37;;;;;;;7.18;3.13;;;24.70;99.90;;;;;;5053422;28;20502;-70
2022/05/17 10:49:18;;;;;;;6.32;3.20;;;24.30;99.90;;;;;;5051402;28;20033;-70
2022/05/17 10:51:46;;;;;;;6.85;2.65;;;23.90;99.90;;;;;;5053212;28;20064;-70
2022/05/17 10:54:47;;;;;;;9.73;3.33;;;23.80;99.90;;;;;;5050992;28;20130;-70
2022/05/17 10:57:45;;;;;;;7.30;2.90;;;23.90;99.90;;;;;;5023724;28;20040;-69
2022/05/17 11:00:20;;;;;;;4.32;2.72;;;24.00;99.90;;;;;;5026701;28;20044;-70
2022/05/17 11:03:23;;;;;;;4.65;2.92;;;24.10;99.90;;;;;;5051555;28;20053;-69
2022/05/17 11:06:10;;;;;;;5.10;2.50;;;23.90;99.90;;;;;;5048155;28;20104;-71
2022/05/17 11:08:48;;;;;;;11.52;3.15;;;24.00;99.90;;;;;;5047370;28;20040;-71
2022/05/17 11:11:31;;;;;;;4.07;2.50;;;24.10;99.90;;;;;;5046027;28;20056;-71
2022/05/17 11:14:10;;;;;;;6.68;2.78;;;24.00;99.90;;;;;;5048056;28;20024;-71
2022/05/17 11:17:12;;;;;;;4.18;2.30;;;24.20;99.90;;;;;;5047579;28;20132;-72
2022/05/17 11:19:37;;;;;;;5.60;2.38;;;24.30;99.90;;;;;;5046987;28;20040;-72
2022/05/17 11:22:36;;;;;;;6.63;2.50;;;24.50;99.90;;;;;;5042793;28;20025;-72
2022/05/17 11:25:48;;;;;;;7.50;2.58;;;25.00;99.90;;;;;;5047375;28;20021;-72
2022/05/17 11:28:45;;;;;;;5.88;2.33;;;25.50;99.90;;;;;;4952013;28;20043;-72
2022/05/17 11:31:35;;;;;;;10.23;2.55;;;26.20;99.90;;;;;;4961343;28;20475;-73
2022/05/17 11:34:22;;;;;;;3.80;1.80;;;26.60;99.90;;;;;;5034041;28;20044;-73
2022/05/17 11:36:50;;;;;;;4.68;2.15;;;27.20;99.90;;;;;;5031800;28;20107;-72
2022/05/17 11:39:37;;;;;;;7.65;2.53;;;27.40;99.90;;;;;;5028148;28;20717;-72
2022/05/17 11:42:09;;;;;;;4.22;2.05;;;27.80;99.90;;;;;;5049098;28;20059;-73
2022/05/17 11:44:47;;;;;;;6.63;2.22;;;27.60;99.90;;;;;;5046739;28;20060;-73
2022/05/17 11:47:32;;;;;;;4.35;1.80;;;27.20;99.40;;;;;;5049206;28;20025;-73
2022/05/17 11:50:15;;;;;;;;;;;26.90;99.90;;;;;;5049768;28;20037;-72
2022/05/17 11:52:43;;;;;;;6.45;1.90;;;27.00;98.80;;;;;;5028115;28;19956;-73
2022/05/17 11:55:11;;;;;;;6.15;2.25;;;27.10;99.90;;;;;;5035267;28;20537;-73
2022/05/17 11:57:38;;;;;;;5.28;2.50;;;27.40;98.30;;;;;;5034844;28;20080;-73
2022/05/17 12:00:04;;;;;;;8.13;2.72;;;27.60;97.50;;;;;;5041440;28;20032;-70
2022/05/17 12:02:48;;;;;;;6.85;2.33;;;27.70;99.90;;;;;;5047372;28;20488;-70
2022/05/17 12:05:43;;;;;;;4.00;2.00;;;27.60;98.10;;;;;;5050533;28;20037;-70
2022/05/17 12:08:27;;;;;;;7.90;2.03;;;27.50;97.80;;;;;;5045218;28;20783;-70
2022/05/17 12:11:20;;;;;;;8.10;2.77;;;27.80;98.40;;;;;;5029749;28;20033;-72
2022/05/17 12:14:20;;;;;;;6.32;3.00;;;27.60;97.40;;;;;;5047858;28;20032;-71
2022/05/17 12:16:50;;;;;;;5.28;2.45;;;27.60;96.60;;;;;;5049993;28;20032;-72
2022/05/17 12:19:24;;;;;;;4.25;2.40;;;27.70;96.70;;;;;;5051111;28;20049;-73
2022/05/17 12:21:58;;;;;;;5.50;2.60;;;28.00;93.90;;;;;;5052154;28;20421;-72
2022/05/17 12:24:24;;;;;;;4.50;1.77;;;28.10;94.00;;;;;;5049182;28;20028;-73
2022/05/17 12:27:30;;;;;;;4.60;2.30;;;28.30;92.20;;;;;;5029645;28;20295;-72
2022/05/17 12:33:06;;;;;;;5.90;1.85;;;28.50;90.90;;;;;;4982210;28;20415;-72
2022/05/17 12:35:31;;;;;;;6.13;1.77;;;28.40;90.40;;;;;;5027171;28;20049;-73
2022/05/17 12:37:57;;;;;;;3.85;1.85;;;27.90;90.20;;;;;;5042296;28;20033;-73
2022/05/17 12:43:14;;;;;;;4.60;2.20;;;26.90;93.40;;;;;;5042619;28;20052;-72
2022/05/17 12:45:46;;;;;;;6.57;2.00;;;26.50;93.10;;;;;;5041588;28;20033;-73
2022/05/17 12:48:28;;;;;;;6.07;2.55;;;26.30;95.10;;;;;;5042015;28;20167;-73
2022/05/17 12:50:58;;;;;;;5.22;2.50;;;26.60;94.00;;;;;;5041581;28;20140;-72
2022/05/17 12:53:35;;;;;;;8.55;2.90;;;26.70;94.40;;;;;;5044010;28;20033;-72
2022/05/17 12:56:20;;;;;;;10.07;3.20;;;26.70;94.10;;;;;;5041888;28;20444;-72
2022/05/17 12:58:53;;;;;;;6.75;2.30;;;26.80;94.80;;;;;;5041657;28;20103;-73
2022/05/17 13:01:26;;;;;;;6.82;2.80;;;26.60;95.00;;;;;;5042149;28;20021;-72
2022/05/17 13:03:54;;;;;;;5.18;2.42;;;26.40;95.90;;;;;;5037297;28;20033;-72
2022/05/17 13:06:20;;;;;;;5.07;2.40;;;26.30;93.30;;;;;;5038093;28;20047;-72
2022/05/17 13:08:45;;;;;;;3.92;2.22;;;26.30;94.80;;;;;;5040402;28;20037;-73
2022/05/17 13:11:24;;;;;;;4.80;2.00;;;26.40;94.30;;;;;;5041272;28;20036;-73
2022/05/17 13:13:55;;;;;;;6.65;2.40;;;26.90;93.20;;;;;;5042757;28;20437;-72
2022/05/17 13:16:25;;;;;;;3.92;2.03;;;27.00;92.50;;;;;;5043328;28;20033;-72
2022/05/17 13:18:52;;;;;;;3.72;2.13;;;27.10;93.10;;;;;;5043044;28;20021;-72
2022/05/17 13:21:20;;;;;;;5.35;2.47;;;26.80;94.20;;;;;;5041987;28;20033;-72
2022/05/17 13:23:47;;;;;;;6.70;2.10;;;26.60;95.10;;;;;;5041524;28;20052;-79
2022/05/17 13:26:14;;;;;;;5.05;2.30;;;26.90;94.60;;;;;;5023078;28;20032;-73
2022/05/17 13:28:40;;;;;;;4.57;2.30;;;27.00;92.50;;;;;;5042680;28;20025;-73
2022/05/17 13:31:14;;;;;;;4.32;2.10;;;26.80;94.10;;;;;;5043543;28;20103;-73
2022/05/17 13:33:53;;;;;;;8.45;2.38;;;26.90;94.60;;;;;;5044444;28;20031;-73
2022/05/17 13:36:28;;;;;;;5.63;2.28;;;27.10;93.60;;;;;;5044186;28;20393;-73
2022/05/17 13:38:54;;;;;;;5.70;2.60;;;27.10;93.70;;;;;;5043207;28;20076;-73
2022/05/17 13:41:32;;;;;;;7.45;2.70;;;27.40;93.30;;;;;;5044106;28;20485;-73
2022/05/17 13:44:00;;;;;;;5.47;2.28;;;27.30;91.50;;;;;;5044531;28;20078;-73
2022/05/17 13:46:34;;;;;;;4.72;1.88;;;27.20;91.10;;;;;;5044341;28;20389;-73
2022/05/17 13:49:08;;;;;;;6.32;2.50;;;27.00;92.70;;;;;;5044015;28;20790;-73